METAR UND TAF INFORMATION

METAR FOR LDPL
ADDS - METARS form results

(0127 UTC 26 June 2022)
Data provider http://aviationweather.gov/metar/data/
 
METAR text: LDPL 260100Z 08006KT CAVOK 20/19 Q1014
Conditions at: LDPL (PULA , HR) observed 0100 UTC 26 June 2022
Temperature: 20.0°C (68°F)
Dewpoint: 19.0°C (66°F) [RH = 94%]
Pressure (altimeter): 29.94 inches Hg (1014.0 mb)
Winds: from the E (80 degrees) at 7 MPH (6 knots; 3.1 m/s)
Visibility: 6 or more miles (10+ km)
Ceiling: ceiling and visibility are OK
Clouds: unknown
Weather: no significant weather observed at this time

METAR text: LDPL 260030Z 08005KT CAVOK 21/19 Q1014
Conditions at: LDPL (PULA , HR) observed 0030 UTC 26 June 2022
Temperature: 21.0°C (70°F)
Dewpoint: 19.0°C (66°F) [RH = 88%]
Pressure (altimeter): 29.94 inches Hg (1014.0 mb)
Winds: from the E (80 degrees) at 6 MPH (5 knots; 2.6 m/s)
Visibility: 6 or more miles (10+ km)
Ceiling: ceiling and visibility are OK
Clouds: unknown
Weather: no significant weather observed at this time

Forecast for: LDPL (PULA , HR)
Text: TAF LDPL 252325Z 2600/2700 09006KT CAVOK TX30/2612Z TN18/2603Z
Forecast period: 0000 to 1000 UTC 26 June 2022
Forecast type: FROM: standard forecast or significant change
Winds: from the E (90 degrees) at 7 MPH (6 knots; 3.1 m/s)
Visibility: 6 or more miles (10+ km)
Ceiling: unknown
Clouds: missing
Weather: no significant weather forecast for this period
Text: BECMG 2610/2612 23008KT
Forecast period: 1000 to 1600 UTC 26 June 2022
Forecast type: BECOMING: Conditions expected to become as follows by 1200 UTC 26 June 2022
Winds: from the SW (230 degrees) at 9 MPH (8 knots; 4.1 m/s)
Visibility: 6 or more miles (10+ km)
Ceiling: unknown
Clouds: missing
Weather: no significant weather forecast for this period
Text: BECMG 2616/2618 VRB02KT
Forecast period: 1600 UTC 26 June 2022 to 0000 UTC 27 June 2022
Forecast type: BECOMING: Conditions expected to become as follows by 1800 UTC 26 June 2022
Winds: variable direction winds at 2 MPH (2 knots; 1.0 m/s)
Visibility: 6 or more miles (10+ km)
Ceiling: unknown
Clouds: missing
Weather: no significant weather forecast for this period

 FLUGHAFENKARTE

 RUNWAY INFORMATION
Runway 09 Runway length 9678 ft Runway width 148 ft
Runway elevation 169 ft Runway displaced threshold 0 ft Runway heading 88
Runway 27 Runway length 9678 ft Runway width 148 ft
Runway elevation 274 ft Runway displaced threshold 0 ft Runway heading 268

 AIRPORT FREQUENCIES
Type APP Name APP Frequency 118.4 MHZ
Type TWR Name TWR Frequency 120 MHZ

 AIRPORT NEAR NAVIGATION AIDS
Type NDB Name Cres Frequency 433 KHZ
Type NDB Name Kavran Frequency 265 KHZ
Type NDB Name Pula Frequency 352 KHZ
Type VOR-DME Name Pula Frequency 111250 KHZ